Messwerte Pago Pago

Temperatur

Temperatur
°C
1614308400 16.00 16.00 28
1614312000 17.00 17.00 26
1614315600 18.00 18.00 25
1614319200 19.00 19.00 26
1614322800 20.00 20.00 25
1614326400 21.00 21.00 25
1614330000 22.00 22.00 25
1614333600 23.00 23.00 25
1614337200 0.00 0.00 25
1614340800 1.00 1.00 25
1614344400 2.00 2.00 25
1614348000 3.00 3.00
1614351600 4.00 4.00
1614355200 5.00 5.00 25
1614358800 6.00 6.00 25
1614362400 7.00 7.00 25
1614366000 8.00 8.00 27
1614369600 9.00 9.00 28
1614373200 10.00 10.00
1614376800 11.00 11.00 30
1614380400 12.00 12.00 30
1614384000 13.00 13.00 31
1614387600 14.00 14.00 31
1614391200 15.00 15.00

Wir danken unserem Partner:

Aktuellste Messwerte

Wettercharakter
Wetter: wechselnd bewölkt
Temperatur
30 °C
Feuchtigkeit
80 %
Wind
15 km/hWindrichtung: Nordwest
Luftdruck
1007 hPa
Messzeit: 26. Februar 2021, 17.00Datenquelle: METAR

Weitere Messstationen in der Nähe

Messstation Temperatur Entfernung
Faleolo 30 °C 149 km

Wind

Windrichtung Böen Mittelwind
° km/h km/h
1614308400 16.00 15.00 - 16.00 330° 10
1614312000 17.00 16.00 - 17.00 0
1614315600 18.00 17.00 - 18.00 0
1614319200 19.00 18.00 - 19.00 5
1614322800 20.00 19.00 - 20.00 5
1614326400 21.00 20.00 - 21.00 5
1614330000 22.00 21.00 - 22.00 5
1614333600 23.00 22.00 - 23.00 5
1614337200 0.00 23.00 - 0.00 5
1614340800 1.00 0.00 - 1.00 5
1614344400 2.00 1.00 - 2.00 10
1614348000 3.00 2.00 - 3.00
1614351600 4.00 3.00 - 4.00
1614355200 5.00 4.00 - 5.00 330° 30 15
1614358800 6.00 5.00 - 6.00 0
1614362400 7.00 6.00 - 7.00 5
1614366000 8.00 7.00 - 8.00 5
1614369600 9.00 8.00 - 9.00 0
1614373200 10.00 9.00 - 10.00
1614376800 11.00 10.00 - 11.00 330° 20
1614380400 12.00 11.00 - 12.00 330° 20
1614384000 13.00 12.00 - 13.00 340° 35 20
1614387600 14.00 13.00 - 14.00 10° 10
1614391200 15.00 14.00 - 15.00

Ihre Wetterstation

Fehlt Ihre Wetterstation auf unserem Portal?

Schreiben Sie an network@meteonews.ch

Klima

Wann ist es am wärmsten? Wann regnet es am wenigsten? Unsere Klimadaten geben Auskunft.